createdAt,value
2019-06-26T00:00:25.425Z,16.43
2019-06-26T00:02:54.568Z,16.67
2019-06-26T00:05:23.805Z,16.70
2019-06-26T00:07:53.106Z,16.35
2019-06-26T00:10:22.387Z,16.63
2019-06-26T00:12:51.951Z,15.70
2019-06-26T00:15:21.345Z,17.50
2019-06-26T00:17:50.804Z,16.93
2019-06-26T00:20:20.319Z,17.55
2019-06-26T00:22:49.558Z,17.73
2019-06-26T00:25:19.142Z,16.17
2019-06-26T00:27:48.656Z,17.07
2019-06-26T00:30:18.631Z,16.40
2019-06-26T00:32:47.814Z,17.03
2019-06-26T00:35:17.042Z,16.97
2019-06-26T00:37:46.289Z,16.80
2019-06-26T00:40:15.793Z,17.03
2019-06-26T00:42:45.292Z,15.83
2019-06-26T00:45:15.487Z,17.50
2019-06-26T00:47:45.003Z,17.23
2019-06-26T00:50:14.680Z,16.80
2019-06-26T00:52:43.892Z,16.77
2019-06-26T00:55:13.167Z,16.30
2019-06-26T00:57:42.469Z,16.90
2019-06-26T01:00:12.569Z,18.50
2019-06-26T01:02:41.938Z,15.90
2019-06-26T01:05:12.076Z,17.90
2019-06-26T01:07:41.273Z,16.65
2019-06-26T01:10:11.190Z,19.47
2019-06-26T01:12:40.767Z,17.30
2019-06-26T01:15:11.567Z,17.47
2019-06-26T01:17:41.249Z,18.07
2019-06-26T01:20:12.603Z,18.42
2019-06-26T01:22:42.086Z,17.80
2019-06-26T01:25:12.354Z,16.97
2019-06-26T01:27:41.581Z,18.55
2019-06-26T01:30:11.076Z,17.73
2019-06-26T01:32:40.695Z,18.40
2019-06-26T01:35:10.836Z,17.27
2019-06-26T01:37:40.490Z,18.10
2019-06-26T01:40:09.704Z,18.87
2019-06-26T01:42:38.939Z,18.40
2019-06-26T01:45:08.426Z,18.57
2019-06-26T01:47:37.668Z,17.77
2019-06-26T01:50:08.893Z,18.37
2019-06-26T01:52:39.127Z,18.75
2019-06-26T01:55:10.192Z,19.10
2019-06-26T01:57:39.367Z,19.27
2019-06-26T02:00:09.340Z,21.27
2019-06-26T02:02:38.568Z,17.83
2019-06-26T02:05:07.999Z,17.10
2019-06-26T02:07:37.590Z,20.50
2019-06-26T02:10:08.181Z,18.62
2019-06-26T02:12:37.576Z,19.00
2019-06-26T02:15:07.530Z,19.80
2019-06-26T02:17:36.839Z,19.40
2019-06-26T02:20:06.588Z,19.70
2019-06-26T02:22:36.192Z,20.53
2019-06-26T02:25:06.382Z,21.73
2019-06-26T02:27:36.419Z,19.87
2019-06-26T02:30:06.095Z,18.83
2019-06-26T02:32:35.389Z,19.83
2019-06-26T02:35:09.333Z,19.00
2019-06-26T02:37:36.670Z,19.03
2019-06-26T02:40:06.917Z,19.40
2019-06-26T02:42:36.114Z,20.50
2019-06-26T02:45:06.576Z,21.53
2019-06-26T02:47:36.201Z,18.83
2019-06-26T02:50:06.292Z,20.37
2019-06-26T02:52:35.871Z,19.63
2019-06-26T02:55:05.662Z,18.50
2019-06-26T02:57:34.841Z,19.47
2019-06-26T03:00:04.902Z,20.08
2019-06-26T03:02:34.376Z,18.73
2019-06-26T03:05:03.681Z,17.60
2019-06-26T03:07:32.860Z,20.43
2019-06-26T03:10:02.051Z,19.60
2019-06-26T03:12:31.636Z,18.67
2019-06-26T03:15:08.654Z,18.97
2019-06-26T03:17:31.899Z,20.60
2019-06-26T03:20:01.050Z,19.37
2019-06-26T03:22:30.695Z,21.77
2019-06-26T03:24:59.900Z,18.70
2019-06-26T03:27:29.180Z,20.07
2019-06-26T03:29:58.588Z,21.10
2019-06-26T03:32:28.128Z,19.77
2019-06-26T03:34:57.269Z,19.60
2019-06-26T03:37:26.515Z,20.50
2019-06-26T03:39:55.758Z,18.43
2019-06-26T03:42:24.984Z,19.30
2019-06-26T03:44:54.219Z,20.70
2019-06-26T03:47:23.379Z,20.13
2019-06-26T03:49:52.942Z,20.32
2019-06-26T03:52:22.170Z,20.50
2019-06-26T03:54:51.390Z,18.73
2019-06-26T03:57:20.647Z,20.70
2019-06-26T03:59:49.908Z,20.17
2019-06-26T04:02:19.508Z,18.80
2019-06-26T04:04:48.750Z,18.30
2019-06-26T04:07:18.042Z,19.90
2019-06-26T04:09:47.393Z,20.17
2019-06-26T04:12:16.836Z,19.13
2019-06-26T04:14:46.153Z,18.43
2019-06-26T04:17:15.537Z,19.30
2019-06-26T04:19:45.068Z,19.47
2019-06-26T04:22:14.331Z,20.30
2019-06-26T04:24:43.572Z,20.10
2019-06-26T04:27:12.899Z,19.77
2019-06-26T04:29:42.445Z,18.97
2019-06-26T04:32:11.720Z,20.40
2019-06-26T04:34:44.407Z,21.67
2019-06-26T04:37:19.765Z,20.00
2019-06-26T04:39:49.056Z,24.20
2019-06-26T04:42:21.144Z,19.83
2019-06-26T04:44:53.421Z,18.97
2019-06-26T04:47:25.174Z,20.50
2019-06-26T04:49:57.196Z,19.83
2019-06-26T04:52:28.586Z,22.40
2019-06-26T04:55:00.297Z,23.03
2019-06-26T04:57:29.968Z,20.27
2019-06-26T04:59:59.202Z,21.30
2019-06-26T05:02:28.456Z,22.40
2019-06-26T05:04:57.819Z,22.50
2019-06-26T05:07:27.008Z,20.70
2019-06-26T05:09:56.558Z,20.73
2019-06-26T05:12:25.792Z,25.83
2019-06-26T05:14:55.180Z,28.80
2019-06-26T05:17:24.695Z,20.70
2019-06-26T05:19:53.846Z,20.00
2019-06-26T05:22:23.500Z,20.03
2019-06-26T05:24:54.279Z,21.03
2019-06-26T05:27:23.615Z,20.45
2019-06-26T05:29:54.500Z,18.53
2019-06-26T05:32:24.248Z,21.00
2019-06-26T05:34:53.709Z,19.73
2019-06-26T05:37:22.957Z,21.03
2019-06-26T05:39:54.783Z,20.20
2019-06-26T05:42:24.895Z,21.33
2019-06-26T05:44:54.260Z,20.17
2019-06-26T05:47:23.840Z,19.37
2019-06-26T05:49:54.324Z,21.00
2019-06-26T05:52:23.851Z,20.37
2019-06-26T05:54:53.404Z,21.33
2019-06-26T05:57:22.729Z,18.87
2019-06-26T05:59:52.430Z,21.27
2019-06-26T06:02:21.641Z,20.10
2019-06-26T06:04:51.035Z,21.87
2019-06-26T06:07:20.345Z,20.83
2019-06-26T06:09:50.428Z,19.98
2019-06-26T06:12:19.708Z,18.70
2019-06-26T06:14:48.916Z,19.10
2019-06-26T06:17:18.176Z,19.10
2019-06-26T06:19:47.759Z,19.97
2019-06-26T06:22:17.046Z,18.47
2019-06-26T06:24:46.707Z,18.50
2019-06-26T06:27:16.228Z,19.92
2019-06-26T06:29:45.761Z,17.73
2019-06-26T06:32:14.984Z,18.48
2019-06-26T06:34:44.119Z,20.23
2019-06-26T06:37:13.331Z,18.30
2019-06-26T06:39:42.575Z,18.93
2019-06-26T06:42:12.116Z,20.20
2019-06-26T06:44:41.325Z,17.00
2019-06-26T06:47:10.874Z,16.82
2019-06-26T06:49:40.150Z,17.57
2019-06-26T06:52:09.713Z,17.43
2019-06-26T06:54:39.232Z,18.12
2019-06-26T06:57:08.788Z,17.67
2019-06-26T06:59:38.115Z,17.13
2019-06-26T07:02:07.504Z,18.87
2019-06-26T07:04:37.047Z,18.07
2019-06-26T07:07:06.308Z,17.70
2019-06-26T07:09:36.194Z,18.40
2019-06-26T07:12:05.789Z,17.80
2019-06-26T07:14:35.087Z,16.37
2019-06-26T07:17:19.477Z,17.20
2019-06-26T07:19:35.587Z,17.30
2019-06-26T07:22:07.218Z,16.73
2019-06-26T07:24:35.751Z,17.67
2019-06-26T07:27:05.144Z,17.47
2019-06-26T07:29:34.377Z,18.27
2019-06-26T07:32:04.268Z,18.30
2019-06-26T07:34:33.471Z,17.82
2019-06-26T07:37:02.693Z,16.80
2019-06-26T07:39:31.991Z,17.30
2019-06-26T07:42:01.403Z,18.65
2019-06-26T07:44:30.836Z,15.37
2019-06-26T07:47:00.516Z,15.00
2019-06-26T07:49:30.045Z,15.70
2019-06-26T07:51:59.641Z,17.03
2019-06-26T07:54:28.903Z,16.47
2019-06-26T07:56:58.267Z,17.40
2019-06-26T07:59:28.248Z,15.17
2019-06-26T08:01:57.609Z,15.50
2019-06-26T08:04:26.882Z,15.73
2019-06-26T08:06:56.144Z,15.13
2019-06-26T08:09:25.659Z,15.50
2019-06-26T08:11:54.856Z,14.70
2019-06-26T08:14:24.401Z,15.80
2019-06-26T08:16:53.667Z,15.23
2019-06-26T08:19:23.430Z,15.07
2019-06-26T08:21:53.351Z,16.50
2019-06-26T08:24:23.017Z,15.23
2019-06-26T08:26:52.223Z,14.43
2019-06-26T08:29:21.448Z,14.23
2019-06-26T08:31:50.679Z,14.70
2019-06-26T08:34:19.974Z,14.00
2019-06-26T08:36:50.105Z,13.87
2019-06-26T08:39:19.402Z,14.03
2019-06-26T08:41:48.759Z,14.10
2019-06-26T08:44:17.961Z,14.83
2019-06-26T08:46:47.262Z,13.83
2019-06-26T08:49:25.511Z,15.13
2019-06-26T08:51:47.413Z,14.30
2019-06-26T08:54:16.670Z,14.93
2019-06-26T08:56:45.973Z,14.50
2019-06-26T08:59:15.168Z,13.53
2019-06-26T09:01:44.452Z,14.58
2019-06-26T09:04:14.003Z,13.40
2019-06-26T09:06:44.095Z,13.87
2019-06-26T09:09:13.316Z,16.23
2019-06-26T09:11:43.192Z,14.13
2019-06-26T09:14:12.902Z,13.00
2019-06-26T09:16:42.199Z,13.77
2019-06-26T09:19:11.714Z,12.97
2019-06-26T09:21:40.977Z,11.50
2019-06-26T09:24:10.509Z,11.18
2019-06-26T09:26:39.887Z,11.20
2019-06-26T09:29:09.769Z,12.80
2019-06-26T09:31:39.092Z,11.40
2019-06-26T09:34:08.248Z,12.20
2019-06-26T09:36:37.396Z,12.17
2019-06-26T09:39:07.884Z,12.80
2019-06-26T09:41:37.109Z,9.13
2019-06-26T09:44:06.453Z,9.47
2019-06-26T09:46:35.699Z,9.57
2019-06-26T09:49:05.257Z,9.37
2019-06-26T09:51:34.815Z,9.70
2019-06-26T09:54:04.063Z,10.30
2019-06-26T09:56:33.939Z,12.47
2019-06-26T09:59:03.235Z,10.10
2019-06-26T10:01:32.480Z,8.08
2019-06-26T10:04:01.761Z,9.97
2019-06-26T10:06:31.075Z,9.33
2019-06-26T10:09:00.318Z,13.08
2019-06-26T10:11:29.495Z,9.50
2019-06-26T10:13:59.059Z,10.00
2019-06-26T10:16:28.339Z,9.77
2019-06-26T10:19:09.666Z,8.73
2019-06-26T10:21:28.861Z,8.80
2019-06-26T10:23:58.110Z,9.10
2019-06-26T10:26:27.322Z,9.98
2019-06-26T10:28:56.500Z,11.63
2019-06-26T10:31:25.801Z,10.33
2019-06-26T10:33:55.060Z,10.23
2019-06-26T10:36:24.821Z,12.80
2019-06-26T10:38:54.164Z,13.60
2019-06-26T10:41:23.372Z,10.72
2019-06-26T10:43:53.564Z,10.65
2019-06-26T10:46:23.166Z,10.07
2019-06-26T10:48:52.747Z,9.13
2019-06-26T10:51:22.224Z,9.63
2019-06-26T10:53:51.728Z,10.83
2019-06-26T10:56:21.291Z,9.15
2019-06-26T10:58:50.773Z,8.60
2019-06-26T11:01:20.095Z,8.93
2019-06-26T11:03:50.217Z,8.80
2019-06-26T11:06:19.491Z,9.53
2019-06-26T11:08:48.742Z,9.35
2019-06-26T11:11:18.492Z,10.68
2019-06-26T11:13:47.798Z,7.90
2019-06-26T11:16:17.320Z,9.37
2019-06-26T11:18:46.607Z,13.10
2019-06-26T11:21:15.928Z,8.18
2019-06-26T11:23:45.303Z,9.90
2019-06-26T11:26:14.628Z,8.17
2019-06-26T11:28:44.196Z,12.98
2019-06-26T11:31:13.474Z,8.60
2019-06-26T11:33:43.383Z,9.23
2019-06-26T11:36:12.623Z,13.07
2019-06-26T11:38:42.133Z,9.07
2019-06-26T11:41:11.638Z,13.07
2019-06-26T11:43:40.939Z,8.23
2019-06-26T11:46:10.255Z,10.13
2019-06-26T11:48:39.879Z,8.05
2019-06-26T11:51:09.215Z,9.37
2019-06-26T11:53:38.582Z,12.57
2019-06-26T11:56:08.525Z,9.37
2019-06-26T11:58:38.076Z,8.40
2019-06-26T12:01:07.333Z,13.50
2019-06-26T12:03:36.891Z,11.23
2019-06-26T12:06:17.645Z,8.87
2019-06-26T12:08:36.936Z,13.78
2019-06-26T12:11:06.276Z,9.13
2019-06-26T12:13:35.564Z,7.63
2019-06-26T12:16:04.794Z,8.23
2019-06-26T12:18:33.992Z,9.10
2019-06-26T12:21:03.283Z,8.03
2019-06-26T12:23:32.552Z,8.53
2019-06-26T12:26:01.897Z,7.70
2019-06-26T12:28:31.463Z,8.20
2019-06-26T12:31:00.624Z,6.73
2019-06-26T12:33:30.240Z,7.37
2019-06-26T12:35:59.513Z,8.43
2019-06-26T12:38:28.675Z,12.67
2019-06-26T12:40:57.934Z,8.13
2019-06-26T12:43:27.134Z,10.27
2019-06-26T12:45:56.845Z,10.07
2019-06-26T12:48:26.084Z,7.30
2019-06-26T12:50:56.405Z,8.00
2019-06-26T12:53:25.633Z,7.30
2019-06-26T12:55:55.375Z,9.70
2019-06-26T12:58:24.806Z,8.70
2019-06-26T13:00:54.417Z,7.10
2019-06-26T13:03:23.984Z,8.00
2019-06-26T13:05:53.127Z,7.10
2019-06-26T13:08:22.312Z,7.93
2019-06-26T13:10:51.483Z,6.80
2019-06-26T13:13:20.696Z,24.10
2019-06-26T13:15:51.149Z,8.78
2019-06-26T13:18:21.453Z,6.37
2019-06-26T13:20:53.362Z,8.80
2019-06-26T13:23:22.225Z,8.97
2019-06-26T13:25:51.450Z,6.33
2019-06-26T13:28:20.989Z,7.17
2019-06-26T13:30:53.170Z,6.87
2019-06-26T13:33:21.304Z,10.73
2019-06-26T13:35:50.792Z,8.87
2019-06-26T13:38:20.294Z,6.83
2019-06-26T13:40:50.383Z,11.43
2019-06-26T13:43:19.593Z,6.90
2019-06-26T13:45:48.759Z,7.67
2019-06-26T13:48:17.950Z,8.17
2019-06-26T13:50:47.402Z,7.78
2019-06-26T13:53:16.685Z,7.50
2019-06-26T13:55:45.934Z,14.57
2019-06-26T13:58:15.122Z,9.18
2019-06-26T14:00:44.355Z,9.13
2019-06-26T14:03:13.677Z,8.87
2019-06-26T14:05:42.853Z,7.53
2019-06-26T14:08:12.388Z,10.53
2019-06-26T14:10:41.733Z,9.37
2019-06-26T14:13:10.960Z,10.50
2019-06-26T14:15:40.497Z,8.30
2019-06-26T14:18:09.728Z,9.00
2019-06-26T14:20:39.286Z,10.17
2019-06-26T14:23:08.534Z,10.37
2019-06-26T14:25:37.847Z,10.93
2019-06-26T14:28:07.008Z,9.63
2019-06-26T14:30:36.324Z,9.90
2019-06-26T14:33:05.527Z,9.67
2019-06-26T14:35:34.789Z,9.80
2019-06-26T14:38:04.311Z,11.33
2019-06-26T14:40:33.544Z,10.20
2019-06-26T14:43:02.882Z,10.47
2019-06-26T14:45:32.561Z,9.98
2019-06-26T14:48:01.741Z,10.37
2019-06-26T14:50:30.947Z,18.67
2019-06-26T14:53:00.518Z,12.40
2019-06-26T14:55:29.807Z,13.50
2019-06-26T14:57:59.292Z,10.00
2019-06-26T15:00:28.885Z,10.10
2019-06-26T15:02:58.074Z,10.40
2019-06-26T15:05:27.575Z,10.93
2019-06-26T15:07:56.876Z,12.27
2019-06-26T15:10:26.153Z,14.97
2019-06-26T15:12:55.372Z,9.90
2019-06-26T15:15:24.560Z,10.70
2019-06-26T15:17:53.933Z,10.20
2019-06-26T15:20:23.731Z,10.00
2019-06-26T15:22:53.239Z,10.43
2019-06-26T15:25:22.520Z,17.13
2019-06-26T15:27:51.684Z,9.87
2019-06-26T15:30:20.909Z,11.07
2019-06-26T15:32:50.425Z,12.90
2019-06-26T15:35:19.950Z,11.40
2019-06-26T15:37:49.222Z,10.40
2019-06-26T15:40:18.509Z,11.23
2019-06-26T15:42:49.084Z,11.17
2019-06-26T15:45:20.831Z,12.60
2019-06-26T15:47:50.596Z,11.57
2019-06-26T15:50:20.570Z,10.83
2019-06-26T15:52:49.793Z,13.00
2019-06-26T15:55:19.121Z,11.60
2019-06-26T15:57:48.399Z,10.47
2019-06-26T16:00:17.678Z,10.70
2019-06-26T16:02:46.922Z,10.58
2019-06-26T16:05:16.287Z,10.07
2019-06-26T16:07:45.888Z,10.50
2019-06-26T16:10:15.495Z,10.63
2019-06-26T16:12:44.861Z,10.17
2019-06-26T16:15:15.009Z,13.83
2019-06-26T16:17:49.915Z,15.85
2019-06-26T16:20:19.431Z,12.95
2019-06-26T16:22:48.683Z,9.27
2019-06-26T16:25:18.022Z,13.13
2019-06-26T16:28:00.951Z,13.43
2019-06-26T16:30:18.297Z,8.40
2019-06-26T16:32:47.797Z,9.10
2019-06-26T16:35:17.063Z,11.00
2019-06-26T16:37:46.395Z,12.63
2019-06-26T16:40:15.710Z,13.50
2019-06-26T16:42:44.975Z,15.07
2019-06-26T16:45:15.547Z,10.32
2019-06-26T16:47:45.143Z,14.20
2019-06-26T16:50:14.517Z,15.20
2019-06-26T16:52:49.633Z,8.40
2019-06-26T16:55:17.343Z,9.90
2019-06-26T16:57:46.616Z,12.63
2019-06-26T17:00:17.624Z,8.43
2019-06-26T17:02:46.903Z,9.50
2019-06-26T17:05:16.820Z,15.40
2019-06-26T17:07:45.978Z,10.53
2019-06-26T17:10:15.440Z,12.23
2019-06-26T17:12:44.696Z,9.67
2019-06-26T17:15:14.035Z,9.50
2019-06-26T17:17:43.585Z,8.20
2019-06-26T17:20:13.079Z,13.17
2019-06-26T17:22:42.815Z,9.30
2019-06-26T17:25:12.315Z,11.55
2019-06-26T17:27:41.577Z,15.25
2019-06-26T17:30:11.180Z,12.93
2019-06-26T17:32:40.445Z,15.00
2019-06-26T17:35:09.654Z,14.03
2019-06-26T17:37:38.868Z,10.63
2019-06-26T17:40:08.364Z,8.77
2019-06-26T17:42:37.634Z,8.20
2019-06-26T17:45:07.062Z,14.10
2019-06-26T17:47:36.359Z,13.88
2019-06-26T17:50:06.289Z,10.27
2019-06-26T17:52:47.203Z,8.07
2019-06-26T17:55:30.329Z,10.97
2019-06-26T17:58:13.989Z,12.50
2019-06-26T18:01:06.924Z,12.20
2019-06-26T18:03:42.220Z,11.23
2019-06-26T18:06:15.193Z,9.17
2019-06-26T18:08:49.515Z,9.97
2019-06-26T18:11:30.542Z,17.73
2019-06-26T18:13:59.974Z,9.73
2019-06-26T18:16:29.629Z,13.00
2019-06-26T18:18:59.586Z,12.50
2019-06-26T18:21:29.259Z,9.20
2019-06-26T18:23:58.617Z,13.50
2019-06-26T18:26:28.022Z,12.00
2019-06-26T18:28:57.662Z,13.43
2019-06-26T18:31:30.463Z,12.27
2019-06-26T18:33:58.298Z,12.73
2019-06-26T18:36:29.186Z,12.57
2019-06-26T18:38:59.277Z,14.63
2019-06-26T18:41:31.197Z,20.80
2019-06-26T18:44:06.600Z,13.73
2019-06-26T18:46:44.332Z,16.12
2019-06-26T18:49:14.397Z,15.00
2019-06-26T18:52:02.275Z,16.77
2019-06-26T18:54:39.743Z,16.03
2019-06-26T18:57:09.179Z,15.97
2019-06-26T18:59:42.059Z,16.00
2019-06-26T19:02:09.569Z,15.07
2019-06-26T19:04:38.935Z,15.93
2019-06-26T19:07:08.202Z,16.95
2019-06-26T19:09:37.473Z,14.43
2019-06-26T19:12:07.061Z,14.90
2019-06-26T19:14:36.315Z,16.70
2019-06-26T19:17:05.949Z,16.00
2019-06-26T19:19:44.999Z,15.88
2019-06-26T19:22:34.152Z,14.10
2019-06-26T19:28:37.197Z,14.50
2019-06-26T19:31:29.406Z,13.80
2019-06-26T19:34:07.996Z,14.50
2019-06-26T19:36:50.190Z,13.80
2019-06-26T19:39:20.775Z,13.67
2019-06-26T19:41:48.832Z,13.80
2019-06-26T19:44:25.171Z,13.80
2019-06-26T19:47:12.303Z,16.27
2019-06-26T19:49:45.871Z,14.97
2019-06-26T19:52:17.062Z,17.37
2019-06-26T19:54:50.354Z,14.40
2019-06-26T19:57:19.848Z,13.50
2019-06-26T19:59:52.118Z,13.80
2019-06-26T20:02:21.413Z,13.20
2019-06-26T20:04:53.712Z,13.90
2019-06-26T20:07:23.057Z,14.03
2019-06-26T20:09:54.856Z,15.53
2019-06-26T20:12:24.169Z,14.30
2019-06-26T20:14:57.954Z,16.77
2019-06-26T20:17:27.301Z,15.38
2019-06-26T20:19:57.017Z,17.00
2019-06-26T20:22:26.304Z,15.63
2019-06-26T20:24:57.430Z,14.37
2019-06-26T20:27:29.979Z,15.43
2019-06-26T20:30:00.587Z,15.13
2019-06-26T20:32:32.398Z,16.80
2019-06-26T20:35:02.189Z,15.50
2019-06-26T20:37:31.439Z,14.77
2019-06-26T20:40:00.789Z,14.60
2019-06-26T20:42:30.458Z,15.53
2019-06-26T20:44:59.708Z,14.83
2019-06-26T20:47:28.925Z,15.33
2019-06-26T20:49:58.467Z,15.07
2019-06-26T20:52:27.694Z,16.27
2019-06-26T20:55:01.973Z,15.47
2019-06-26T20:57:28.375Z,14.87
2019-06-26T20:59:57.569Z,15.10
2019-06-26T21:02:26.985Z,15.70
2019-06-26T21:04:56.538Z,14.35
2019-06-26T21:07:25.940Z,16.60
2019-06-26T21:09:55.220Z,14.70
2019-06-26T21:12:24.800Z,15.77
2019-06-26T21:14:53.987Z,16.33
2019-06-26T21:17:25.813Z,16.20
2019-06-26T21:19:54.902Z,16.40
2019-06-26T21:22:24.133Z,16.17
2019-06-26T21:24:53.818Z,19.37
2019-06-26T21:27:23.735Z,16.27
2019-06-26T21:29:53.006Z,16.70
2019-06-26T21:32:22.246Z,16.43
2019-06-26T21:34:51.816Z,16.63
2019-06-26T21:37:21.842Z,21.10
2019-06-26T21:39:51.170Z,17.10
2019-06-26T21:42:20.659Z,17.20
2019-06-26T21:44:50.502Z,15.20
2019-06-26T21:47:19.860Z,15.90
2019-06-26T21:49:49.131Z,15.93
2019-06-26T21:52:18.323Z,16.43
2019-06-26T21:54:50.608Z,14.90
2019-06-26T21:57:20.081Z,15.57
2019-06-26T21:59:49.833Z,17.02
2019-06-26T22:02:19.366Z,16.48
2019-06-26T22:04:51.604Z,16.77
2019-06-26T22:07:30.078Z,17.92
2019-06-26T22:09:59.729Z,16.60
2019-06-26T22:12:31.179Z,16.90
2019-06-26T22:15:00.418Z,16.70
2019-06-26T22:17:30.194Z,16.93
2019-06-26T22:19:59.372Z,16.80
2019-06-26T22:22:29.280Z,18.73
2019-06-26T22:24:58.518Z,17.10
2019-06-26T22:27:27.754Z,15.43
2019-06-26T22:29:57.094Z,17.20
2019-06-26T22:32:26.589Z,18.13
2019-06-26T22:34:55.908Z,18.57
2019-06-26T22:37:25.663Z,17.73
2019-06-26T22:39:55.767Z,17.30
2019-06-26T22:42:26.591Z,19.10
2019-06-26T22:44:56.911Z,18.67
2019-06-26T22:47:26.184Z,16.77
2019-06-26T22:50:00.372Z,17.90
2019-06-26T22:52:33.492Z,17.73
2019-06-26T22:55:02.866Z,17.87
2019-06-26T22:57:32.094Z,18.53
2019-06-26T23:00:02.276Z,18.57
2019-06-26T23:02:33.554Z,17.60
2019-06-26T23:05:03.194Z,18.33
2019-06-26T23:07:32.528Z,16.90
2019-06-26T23:10:01.954Z,18.25
2019-06-26T23:12:32.146Z,18.40
2019-06-26T23:15:01.595Z,18.37
2019-06-26T23:17:31.519Z,17.97
2019-06-26T23:20:01.085Z,18.63
2019-06-26T23:22:30.450Z,18.67
2019-06-26T23:24:59.814Z,18.30
2019-06-26T23:27:29.378Z,20.23
2019-06-26T23:29:58.641Z,19.57
2019-06-26T23:32:27.941Z,18.90
2019-06-26T23:34:59.156Z,20.10
2019-06-26T23:37:30.145Z,20.15
2019-06-26T23:39:59.722Z,18.60
2019-06-26T23:42:28.930Z,17.47
2019-06-26T23:44:58.437Z,18.73
2019-06-26T23:47:27.949Z,17.00
2019-06-26T23:49:58.229Z,16.10
2019-06-26T23:52:27.571Z,16.90
2019-06-26T23:54:56.900Z,18.07
2019-06-26T23:57:26.174Z,15.43
2019-06-26T23:59:56.059Z,16.77
